• Join FlightAware (Why Join?)
  • Login
  • US Flag 
 
06:13AM EST


 

Airport Tracker/Info


-or-


 

Live Flight TrackerFlight Track Log ✈ N612CT ✈ 13-Sep-2013 ✈ KAPF - KTLH

Flight Track Log - Related Links

Times and Time Zones

All times are in EDT time to prevent confusion due to time zone crossing. See the N612CT flight status page for this flight to view local times or setup timezone preferences in your user account.

Time Position Orientation Groundspeed Altitude Reporting Facility
EDT Latitude Longitude Course Direction KTS MPH feet Rate Location/Type
03:38PM 26.3719 -81.9033 355° North  Level Estimated
03:39PM 26.4132 -81.9012 North  Level FlightAware Approximate
03:40PM 26.4544 -81.8992 North  Level FlightAware Approximate
03:41PM 26.4956 -81.8971 North  Level FlightAware Approximate
03:42PM 26.5368 -81.8951 North  Level FlightAware Approximate
03:43PM 26.5780 -81.8930 North  Level FlightAware Approximate
03:44PM 26.6193 -81.8909 North  Level FlightAware Approximate
03:45PM 26.6605 -81.8888 North  Level FlightAware Approximate
03:46PM 26.7017 -81.8868 North  Level FlightAware Approximate
03:47PM 26.7429 -81.8847 North  Level FlightAware Approximate
03:48PM 26.7846 -81.8826 North  Level FlightAware Approximate
03:49PM 26.8262 -81.8805 North  Level FlightAware Approximate
03:50PM 26.8679 -81.8784 North  Level FlightAware Approximate
03:51PM 26.9095 -81.8763 North  Level FlightAware Approximate
03:52PM 26.9512 -81.8742 North  Level FlightAware Approximate
03:53PM 26.9928 -81.8721 North  Level FlightAware Approximate
03:54PM 27.0345 -81.8700 North  Level FlightAware Approximate
03:55PM 27.0761 -81.8679 North  Level FlightAware Approximate
03:56PM 27.1215 -81.8691 354° North  Level FlightAware Approximate
03:57PM 27.1630 -81.8737 354° North  Level FlightAware Approximate
03:58PM 27.2045 -81.8783 354° North  Level FlightAware Approximate
03:59PM 27.2460 -81.8829 354° North  Level FlightAware Approximate
04:00PM 27.2873 -81.8891 352° North  Level FlightAware Approximate
04:00PM 27.3058 -81.9239 350° North 178 205 10,000  Level Miami Center
04:01PM 27.3284 -81.8972 350° North  Level FlightAware Approximate
04:01PM 27.3519 -81.9117 13° North 178 205 10,000  Level Miami Center
04:02PM 27.3695 -81.9052 350° North  Level FlightAware Approximate
04:02PM 27.4006 -81.8997 12° North 178 205 10,000  Level Miami Center
04:03PM 27.4106 -81.9133 350° North  Level FlightAware Approximate
04:03PM 27.4489 -81.8903 10° North 178 205 10,000  Level Miami Center
04:04PM 27.4517 -81.9213 350° North  Level FlightAware Approximate
04:04PM 27.4969 -81.8831 North 178 205 10,000  Level Miami Center
04:05PM 27.4927 -81.9294 350° North  Level FlightAware Approximate
04:05PM 27.5453 -81.8733 10° North 178 205 10,000  Level Miami Center
04:06PM 27.5338 -81.9375 350° North  Level FlightAware Approximate
04:06PM 27.5958 -81.8639 North 172 198 10,000  Level Miami Center
04:07PM 27.6436 -81.8683 355° North 167 192 10,000  Level Miami Center
04:08PM 27.6892 -81.8797 348° North 167 192 10,000  Level Miami Center
04:09PM 27.7281 -81.8978 338° Northwest 162 186 10,000  Level Miami Center
04:10PM 27.7794 -81.9189 340° North 174 200 10,000  Level Miami Center
04:11PM 27.8225 -81.9419 335° Northwest 174 200 10,000  Level Miami Center
04:12PM 27.8678 -81.9628 338° Northwest 174 200 10,000  Level Miami Center
04:13PM 27.9131 -81.9811 340° North 174 200 10,000  Level Miami Center
04:14PM 27.9539 -82.0019 336° Northwest 174 200 10,000  Level Miami Center
04:15PM 27.9992 -82.0250 336° Northwest 174 200 10,000  Level Miami Center
04:16PM 28.0378 -82.0503 330° Northwest 169 194 10,000  Level Miami Center
04:18PM 28.1000 -82.0833 335° Northwest 170 196 10,000  Level Tampa TRACON
04:19PM 28.1333 -82.1167 319° Northwest 167 192 10,000  Level Tampa TRACON
04:20PM 28.1833 -82.1500 330° Northwest 167 192 10,000  Level Tampa TRACON
04:21PM 28.2167 -82.1833 319° Northwest 169 194 10,000  Level Tampa TRACON
04:22PM 28.2500 -82.2000 336° Northwest 170 196 10,000  Level Tampa TRACON
04:23PM 28.3000 -82.2333 330° Northwest 169 194 10,000  Level Tampa TRACON
04:24PM 28.3333 -82.2667 319° Northwest 168 193 10,000  Level Tampa TRACON
04:25PM 28.3667 -82.3000 319° Northwest 169 194 10,000  Level Tampa TRACON
04:26PM 28.4000 -82.3333 319° Northwest 171 197 10,000  Level Tampa TRACON
04:27PM 28.4333 -82.3833 307° West 171 197 10,000  Level Tampa TRACON
04:28PM 28.4667 -82.4000 336° Northwest 169 194 10,000  Level Tampa TRACON
04:29PM 28.5167 -82.4333 330° Northwest 173 199 10,000  Level Tampa TRACON
04:30PM 28.5500 -82.4500 336° Northwest 171 197 10,000  Level Tampa TRACON
04:31PM 28.6064 -82.4858 331° Northwest 175 201 10,000  Level Jacksonville Center
04:32PM 28.6564 -82.5142 334° Northwest 176 203 10,000  Level Jacksonville Center
04:33PM 28.6961 -82.5375 333° Northwest 175 201 10,000  Level Jacksonville Center
04:34PM 28.7422 -82.5611 336° Northwest 170 196 10,000  Level Jacksonville Center
04:35PM 28.7819 -82.5942 324° Northwest 175 201 10,000  Level Jacksonville Center
04:36PM 28.8322 -82.6436 319° Northwest 178 205 10,000  Level Jacksonville Center
04:37PM 28.8678 -82.6839 315° West 178 205 10,000  Level Jacksonville Center
04:38PM 28.9031 -82.7217 317° Northwest 173 199 10,000  Level Jacksonville Center
04:39PM 28.9367 -82.7575 317° Northwest 173 199 10,000  Level Jacksonville Center
04:40PM 28.9764 -82.8025 315° West 173 199 10,000  Level Jacksonville Center
04:42PM 29.0158 -82.8337 317° Northwest  Level FlightAware Approximate
04:42PM 29.0472 -82.8758 317° Northwest 173 199 10,000  Level Jacksonville Center
04:43PM 29.0744 -82.9069 315° West 173 199 10,000  Level Jacksonville Center
04:44PM 29.1183 -82.9519 318° Northwest 168 193 10,000  Level Jacksonville Center
04:45PM 29.1536 -82.9900 317° Northwest 173 199 10,000  Level Jacksonville Center
04:46PM 29.1892 -83.0281 317° Northwest 173 199 10,000  Level Jacksonville Center
04:47PM 29.2225 -83.0661 315° West 173 199 10,000  Level Jacksonville Center
04:48PM 29.2581 -83.1044 317° Northwest 173 199 10,000  Level Jacksonville Center
04:49PM 29.2933 -83.1425 317° Northwest 173 199 10,000  Level Jacksonville Center
04:50PM 29.3289 -83.1808 317° Northwest 173 199 10,000  Level Jacksonville Center
04:51PM 29.3622 -83.2189 315° West 173 199 10,000  Level Jacksonville Center
04:52PM 29.3975 -83.2572 317° Northwest 173 199 10,000  Level Jacksonville Center
04:53PM 29.4328 -83.2956 317° Northwest 173 199 10,000  Level Jacksonville Center
04:54PM 29.4703 -83.3339 318° Northwest 173 199 10,000  Level Jacksonville Center
04:55PM 29.5036 -83.3697 317° Northwest 173 199 10,000  Level Jacksonville Center
04:56PM 29.5389 -83.4083 316° Northwest 173 199 10,000  Level Jacksonville Center
04:57PM 29.5722 -83.4467 315° West 173 199 10,000  Level Jacksonville Center
04:58PM 29.6075 -83.4850 317° Northwest 173 199 10,000  Level Jacksonville Center
04:59PM 29.6428 -83.5211 318° Northwest 173 199 10,000  Level Jacksonville Center
05:00PM 29.6781 -83.5594 317° Northwest 173 199 10,000  Level Jacksonville Center
05:01PM 29.7114 -83.5956 317° Northwest 173 199 10,000  Level Jacksonville Center
05:02PM 29.7467 -83.6342 316° Northwest 173 199 10,000  Level Jacksonville Center
05:03PM 29.7797 -83.6703 317° Northwest 173 199 10,000 -360 Level Jacksonville Center
05:04PM 29.8172 -83.7114 316° Northwest 173 199 9,300 -600 Descending Jacksonville Center
05:05PM 29.8544 -83.7522 316° Northwest 178 205 8,800 -600 Descending Jacksonville Center
05:06PM 29.8939 -83.7933 318° Northwest 178 205 8,200 -600 Descending Jacksonville Center
05:07PM 29.9289 -83.8319 316° Northwest 178 205 7,700 -600 Descending Jacksonville Center
05:08PM 29.9664 -83.8756 315° West 178 205 7,100 -600 Descending Jacksonville Center
05:09PM 30.0014 -83.9144 316° Northwest 178 205 6,600 -540 Descending Jacksonville Center
05:10PM 30.0386 -83.9556 316° Northwest 178 205 6,100 -540 Descending Jacksonville Center
05:11PM 30.0758 -83.9967 316° Northwest 178 205 5,600 -540 Descending Jacksonville Center
05:13PM 30.1133 -84.0327 320° Northwest  Level FlightAware Approximate
05:20PM 30.3333 -84.2833 311° West  Level FlightAware Approximate
05:21PM 30.3624 -84.3221 311° West  Level FlightAware Approximate
05:22PM 30.3833 -84.3500 311° West  Level FlightAware Approximate
05:23PM 30.3967 -84.3509 311° West  Level Estimated
05:24PM 30.3967 -84.3509 311° West  Level Estimated
05:25PM 30.3967 -84.3509 311° West  Level Estimated
05:26PM 30.3967 -84.3509 311° West  Level Estimated
05:27PM 30.3967 -84.3509 311° West  Level Estimated
05:28PM 30.3967 -84.3509 311° West  Level Estimated
05:29PM 30.3967 -84.3509 311° West  Level Estimated